Terminal Aerodrome Forecast
Issued by NWS Midland/Odessa, TX

Home | Current Version | Previous Version | Text Only | Print | Product List | Glossary On
Versions: 1 2 3 4 5 6 7 8 9 10 11 12 13 14 15 16 17 18 19 20 21
000
FTUS44 KMAF 282300
TAFMAF
TAF
KMAF 282320Z 2900/2924 17011KT P6SM SCT100
      TEMPO 2900/2904 VRB15G30KT 6SM TSRA SCT050CB=

USA.gov is the U.S. government's official web portal to all federal, state and local government web resources and services.